sensor_id;sensor_type;location;lat;lon;timestamp;pressure;altitude;pressure_sealevel;temperature;humidity
80323;BME280;69636;52.372;13.610;2023-07-22T00:01:50;100842.84;;;11.94;100.00
80323;BME280;69636;52.372;13.610;2023-07-22T00:04:17;100845.13;;;11.89;100.00
80323;BME280;69636;52.372;13.610;2023-07-22T00:06:44;100836.84;;;12.00;100.00
80323;BME280;69636;52.372;13.610;2023-07-22T00:09:12;100842.22;;;12.08;100.00
80323;BME280;69636;52.372;13.610;2023-07-22T00:11:40;100840.53;;;12.07;99.79
80323;BME280;69636;52.372;13.610;2023-07-22T00:14:08;100826.44;;;12.23;98.75
80323;BME280;69636;52.372;13.610;2023-07-22T00:16:35;100839.50;;;12.00;99.57
80323;BME280;69636;52.372;13.610;2023-07-22T00:19:03;100835.50;;;11.96;99.59
80323;BME280;69636;52.372;13.610;2023-07-22T00:21:30;100842.31;;;11.91;99.81
80323;BME280;69636;52.372;13.610;2023-07-22T00:23:57;100840.44;;;11.83;99.78
80323;BME280;69636;52.372;13.610;2023-07-22T00:26:24;100840.13;;;11.86;100.00
80323;BME280;69636;52.372;13.610;2023-07-22T00:28:54;100844.09;;;11.82;100.00
80323;BME280;69636;52.372;13.610;2023-07-22T00:31:21;100840.59;;;11.81;100.00
80323;BME280;69636;52.372;13.610;2023-07-22T00:33:48;100835.97;;;11.83;100.00
80323;BME280;69636;52.372;13.610;2023-07-22T00:36:15;100838.47;;;11.85;100.00
80323;BME280;69636;52.372;13.610;2023-07-22T00:38:43;100840.44;;;11.83;100.00
80323;BME280;69636;52.372;13.610;2023-07-22T00:41:10;100837.94;;;11.81;100.00
80323;BME280;69636;52.372;13.610;2023-07-22T00:43:37;100833.13;;;11.85;100.00
80323;BME280;69636;52.372;13.610;2023-07-22T00:46:06;100837.47;;;11.86;100.00
80323;BME280;69636;52.372;13.610;2023-07-22T00:48:33;100831.50;;;11.92;100.00
80323;BME280;69636;52.372;13.610;2023-07-22T00:51:00;100826.56;;;12.05;100.00
80323;BME280;69636;52.372;13.610;2023-07-22T00:53:28;100821.41;;;12.04;100.00
80323;BME280;69636;52.372;13.610;2023-07-22T00:55:55;100819.72;;;12.03;100.00
80323;BME280;69636;52.372;13.610;2023-07-22T00:58:22;100825.88;;;12.03;100.00
80323;BME280;69636;52.372;13.610;2023-07-22T01:00:50;100824.84;;;11.96;100.00
80323;BME280;69636;52.372;13.610;2023-07-22T01:03:19;100831.69;;;11.91;100.00
80323;BME280;69636;52.372;13.610;2023-07-22T01:05:47;100832.19;;;11.94;100.00
80323;BME280;69636;52.372;13.610;2023-07-22T01:08:16;100830.69;;;12.00;100.00
80323;BME280;69636;52.372;13.610;2023-07-22T01:10:43;100837.69;;;12.01;100.00
80323;BME280;69636;52.372;13.610;2023-07-22T01:13:10;100843.53;;;12.04;100.00
80323;BME280;69636;52.372;13.610;2023-07-22T01:15:38;100840.22;;;12.10;100.00
80323;BME280;69636;52.372;13.610;2023-07-22T01:18:06;100828.63;;;12.19;100.00
80323;BME280;69636;52.372;13.610;2023-07-22T01:20:35;100835.78;;;12.19;100.00
80323;BME280;69636;52.372;13.610;2023-07-22T01:23:04;100841.94;;;12.19;100.00
80323;BME280;69636;52.372;13.610;2023-07-22T01:25:32;100833.28;;;12.26;100.00
80323;BME280;69636;52.372;13.610;2023-07-22T01:27:59;100842.91;;;12.27;100.00
80323;BME280;69636;52.372;13.610;2023-07-22T01:30:27;100835.63;;;12.29;100.00
80323;BME280;69636;52.372;13.610;2023-07-22T01:32:54;100828.66;;;12.36;100.00
80323;BME280;69636;52.372;13.610;2023-07-22T01:35:22;100831.63;;;12.33;100.00
80323;BME280;69636;52.372;13.610;2023-07-22T01:37:49;100829.13;;;12.31;100.00
80323;BME280;69636;52.372;13.610;2023-07-22T01:40:17;100834.47;;;12.31;100.00
80323;BME280;69636;52.372;13.610;2023-07-22T01:42:45;100833.97;;;12.36;100.00
80323;BME280;69636;52.372;13.610;2023-07-22T01:45:12;100841.63;;;12.39;100.00
80323;BME280;69636;52.372;13.610;2023-07-22T01:47:39;100835.66;;;12.45;100.00
80323;BME280;69636;52.372;13.610;2023-07-22T01:50:08;100830.00;;;12.48;100.00
80323;BME280;69636;52.372;13.610;2023-07-22T01:52:35;100834.31;;;12.49;100.00
80323;BME280;69636;52.372;13.610;2023-07-22T01:55:03;100834.16;;;12.50;100.00
80323;BME280;69636;52.372;13.610;2023-07-22T01:57:32;100831.50;;;12.50;100.00
80323;BME280;69636;52.372;13.610;2023-07-22T01:59:59;100827.69;;;12.53;100.00
80323;BME280;69636;52.372;13.610;2023-07-22T02:02:26;100837.66;;;12.51;100.00
80323;BME280;69636;52.372;13.610;2023-07-22T02:04:54;100839.00;;;12.55;100.00
80323;BME280;69636;52.372;13.610;2023-07-22T02:07:22;100836.66;;;12.52;100.00
80323;BME280;69636;52.372;13.610;2023-07-22T02:09:49;100836.97;;;12.49;100.00
80323;BME280;69636;52.372;13.610;2023-07-22T02:12:16;100844.66;;;12.44;100.00
80323;BME280;69636;52.372;13.610;2023-07-22T02:14:45;100853.97;;;12.40;100.00
80323;BME280;69636;52.372;13.610;2023-07-22T02:17:12;100862.09;;;12.38;100.00
80323;BME280;69636;52.372;13.610;2023-07-22T02:19:39;100862.25;;;12.37;100.00
80323;BME280;69636;52.372;13.610;2023-07-22T02:22:07;100878.25;;;12.37;100.00
80323;BME280;69636;52.372;13.610;2023-07-22T02:24:34;100872.06;;;12.36;100.00
80323;BME280;69636;52.372;13.610;2023-07-22T02:27:01;100877.56;;;12.35;100.00
80323;BME280;69636;52.372;13.610;2023-07-22T02:29:29;100878.56;;;12.34;100.00
80323;BME280;69636;52.372;13.610;2023-07-22T02:31:57;100881.22;;;12.34;100.00
80323;BME280;69636;52.372;13.610;2023-07-22T02:34:25;100885.03;;;12.31;100.00
80323;BME280;69636;52.372;13.610;2023-07-22T02:36:52;100886.19;;;12.29;100.00
80323;BME280;69636;52.372;13.610;2023-07-22T02:39:19;100885.72;;;12.33;100.00
80323;BME280;69636;52.372;13.610;2023-07-22T02:41:47;100893.53;;;12.35;100.00
80323;BME280;69636;52.372;13.610;2023-07-22T02:44:14;100896.03;;;12.36;100.00
80323;BME280;69636;52.372;13.610;2023-07-22T02:46:42;100898.03;;;12.34;100.00
80323;BME280;69636;52.372;13.610;2023-07-22T02:49:10;100910.66;;;12.32;100.00
80323;BME280;69636;52.372;13.610;2023-07-22T02:51:37;100908.50;;;12.36;100.00
80323;BME280;69636;52.372;13.610;2023-07-22T02:54:05;100904.53;;;12.40;100.00
80323;BME280;69636;52.372;13.610;2023-07-22T02:56:32;100904.84;;;12.37;100.00
80323;BME280;69636;52.372;13.610;2023-07-22T02:58:59;100908.34;;;12.37;100.00
80323;BME280;69636;52.372;13.610;2023-07-22T03:01:27;100905.72;;;12.45;100.00
80323;BME280;69636;52.372;13.610;2023-07-22T03:03:54;100911.03;;;12.37;100.00
80323;BME280;69636;52.372;13.610;2023-07-22T03:06:23;100903.53;;;12.41;100.00
80323;BME280;69636;52.372;13.610;2023-07-22T03:08:50;100912.53;;;12.40;100.00
80323;BME280;69636;52.372;13.610;2023-07-22T03:11:17;100911.50;;;12.33;100.00
80323;BME280;69636;52.372;13.610;2023-07-22T03:13:45;100920.31;;;12.33;100.00
80323;BME280;69636;52.372;13.610;2023-07-22T03:16:12;100915.53;;;12.45;100.00
80323;BME280;69636;52.372;13.610;2023-07-22T03:18:39;100918.53;;;12.50;100.00
80323;BME280;69636;52.372;13.610;2023-07-22T03:21:07;100914.03;;;12.50;100.00
80323;BME280;69636;52.372;13.610;2023-07-22T03:23:35;100920.03;;;12.52;100.00
80323;BME280;69636;52.372;13.610;2023-07-22T03:26:02;100923.19;;;12.48;100.00
80323;BME280;69636;52.372;13.610;2023-07-22T03:28:30;100932.00;;;12.48;100.00
80323;BME280;69636;52.372;13.610;2023-07-22T03:30:57;100934.84;;;12.47;100.00
80323;BME280;69636;52.372;13.610;2023-07-22T03:33:24;100942.84;;;12.47;100.00
80323;BME280;69636;52.372;13.610;2023-07-22T03:35:52;100941.81;;;12.48;100.00
80323;BME280;69636;52.372;13.610;2023-07-22T03:38:19;100944.69;;;12.46;100.00
80323;BME280;69636;52.372;13.610;2023-07-22T03:40:48;100948.16;;;12.47;100.00
80323;BME280;69636;52.372;13.610;2023-07-22T03:43:15;100950.66;;;12.48;100.00
80323;BME280;69636;52.372;13.610;2023-07-22T03:45:42;100953.31;;;12.48;100.00
80323;BME280;69636;52.372;13.610;2023-07-22T03:48:10;100956.47;;;12.52;100.00
80323;BME280;69636;52.372;13.610;2023-07-22T03:50:37;100944.47;;;12.48;100.00
80323;BME280;69636;52.372;13.610;2023-07-22T03:53:05;100946.19;;;12.57;100.00
80323;BME280;69636;52.372;13.610;2023-07-22T03:55:32;100957.16;;;12.54;100.00
80323;BME280;69636;52.372;13.610;2023-07-22T03:58:01;100953.97;;;12.50;100.00
80323;BME280;69636;52.372;13.610;2023-07-22T04:00:28;100952.16;;;12.51;100.00
80323;BME280;69636;52.372;13.610;2023-07-22T04:02:55;100953.19;;;12.58;100.00
80323;BME280;69636;52.372;13.610;2023-07-22T04:05:23;100959.50;;;12.57;100.00
80323;BME280;69636;52.372;13.610;2023-07-22T04:07:50;100962.50;;;12.54;100.00
80323;BME280;69636;52.372;13.610;2023-07-22T04:10:17;100961.34;;;12.56;100.00
80323;BME280;69636;52.372;13.610;2023-07-22T04:12:44;100963.84;;;12.58;100.00
80323;BME280;69636;52.372;13.610;2023-07-22T04:15:13;100961.66;;;12.53;100.00
80323;BME280;69636;52.372;13.610;2023-07-22T04:17:41;100964.78;;;12.49;100.00
80323;BME280;69636;52.372;13.610;2023-07-22T04:20:09;100963.81;;;12.50;100.00
80323;BME280;69636;52.372;13.610;2023-07-22T04:22:36;100967.28;;;12.50;100.00
80323;BME280;69636;52.372;13.610;2023-07-22T04:25:05;100972.47;;;12.52;100.00
80323;BME280;69636;52.372;13.610;2023-07-22T04:27:32;100974.81;;;12.55;100.00
80323;BME280;69636;52.372;13.610;2023-07-22T04:30:00;100980.13;;;12.55;100.00
80323;BME280;69636;52.372;13.610;2023-07-22T04:32:28;100979.50;;;12.61;100.00
80323;BME280;69636;52.372;13.610;2023-07-22T04:34:56;100979.50;;;12.61;100.00
80323;BME280;69636;52.372;13.610;2023-07-22T04:37:23;100981.84;;;12.64;100.00
80323;BME280;69636;52.372;13.610;2023-07-22T04:39:50;100984.19;;;12.75;100.00
80323;BME280;69636;52.372;13.610;2023-07-22T04:42:17;100980.69;;;12.75;100.00
80323;BME280;69636;52.372;13.610;2023-07-22T04:44:45;100987.88;;;12.82;100.00
80323;BME280;69636;52.372;13.610;2023-07-22T04:47:12;100987.56;;;12.85;100.00
80323;BME280;69636;52.372;13.610;2023-07-22T04:49:41;100989.59;;;12.91;100.00
80323;BME280;69636;52.372;13.610;2023-07-22T04:52:08;100987.59;;;12.94;100.00
80323;BME280;69636;52.372;13.610;2023-07-22T04:54:35;100987.28;;;12.97;100.00
80323;BME280;69636;52.372;13.610;2023-07-22T04:57:03;100999.25;;;13.01;100.00
80323;BME280;69636;52.372;13.610;2023-07-22T04:59:31;100992.28;;;13.08;100.00
80323;BME280;69636;52.372;13.610;2023-07-22T05:01:58;100996.97;;;13.14;99.78
80323;BME280;69636;52.372;13.610;2023-07-22T05:04:25;100999.69;;;13.22;99.40
80323;BME280;69636;52.372;13.610;2023-07-22T05:06:54;101000.34;;;13.32;98.82
80323;BME280;69636;52.372;13.610;2023-07-22T05:09:21;100997.38;;;13.43;98.47
80323;BME280;69636;52.372;13.610;2023-07-22T05:11:48;101000.38;;;13.48;98.27
80323;BME280;69636;52.372;13.610;2023-07-22T05:14:15;101001.69;;;13.52;97.59
80323;BME280;69636;52.372;13.610;2023-07-22T05:16:43;101001.84;;;13.59;97.14
80323;BME280;69636;52.372;13.610;2023-07-22T05:19:10;101007.03;;;13.69;97.03
80323;BME280;69636;52.372;13.610;2023-07-22T05:21:37;101012.69;;;13.82;96.68
80323;BME280;69636;52.372;13.610;2023-07-22T05:24:06;101008.69;;;13.94;95.43
80323;BME280;69636;52.372;13.610;2023-07-22T05:26:34;101010.66;;;14.08;94.92
80323;BME280;69636;52.372;13.610;2023-07-22T05:29:01;101010.81;;;14.15;94.67
80323;BME280;69636;52.372;13.610;2023-07-22T05:31:28;101009.47;;;14.27;93.16
80323;BME280;69636;52.372;13.610;2023-07-22T05:33:55;101011.28;;;14.43;93.10
80323;BME280;69636;52.372;13.610;2023-07-22T05:36:23;101010.75;;;14.47;92.48
80323;BME280;69636;52.372;13.610;2023-07-22T05:38:50;101019.44;;;14.41;92.89
80323;BME280;69636;52.372;13.610;2023-07-22T05:41:19;101020.03;;;14.68;92.02
80323;BME280;69636;52.372;13.610;2023-07-22T05:43:46;101016.19;;;14.62;91.76
80323;BME280;69636;52.372;13.610;2023-07-22T05:46:13;101016.50;;;14.75;92.04
80323;BME280;69636;52.372;13.610;2023-07-22T05:48:41;101018.16;;;14.76;91.08
80323;BME280;69636;52.372;13.610;2023-07-22T05:51:09;101017.25;;;14.92;91.31
80323;BME280;69636;52.372;13.610;2023-07-22T05:53:36;101024.44;;;14.83;90.92
80323;BME280;69636;52.372;13.610;2023-07-22T05:56:04;101023.50;;;14.76;90.52
80323;BME280;69636;52.372;13.610;2023-07-22T05:58:32;101026.94;;;14.85;91.10
80323;BME280;69636;52.372;13.610;2023-07-22T06:00:59;101023.63;;;14.83;90.31
80323;BME280;69636;52.372;13.610;2023-07-22T06:03:27;101022.09;;;14.88;91.17
80323;BME280;69636;52.372;13.610;2023-07-22T06:05:54;101033.03;;;14.79;90.49
80323;BME280;69636;52.372;13.610;2023-07-22T06:08:22;101024.84;;;14.72;89.96
80323;BME280;69636;52.372;13.610;2023-07-22T06:10:49;101031.72;;;14.67;89.48
80323;BME280;69636;52.372;13.610;2023-07-22T06:13:16;101042.25;;;14.60;89.81
80323;BME280;69636;52.372;13.610;2023-07-22T06:15:45;101044.59;;;14.63;89.95
80323;BME280;69636;52.372;13.610;2023-07-22T06:18:12;101049.56;;;14.74;89.56
80323;BME280;69636;52.372;13.610;2023-07-22T06:20:40;101046.47;;;14.93;89.80
80323;BME280;69636;52.372;13.610;2023-07-22T06:23:07;101041.69;;;15.12;87.99
80323;BME280;69636;52.372;13.610;2023-07-22T06:25:34;101046.69;;;15.15;87.49
80323;BME280;69636;52.372;13.610;2023-07-22T06:28:02;101047.31;;;15.25;86.80
80323;BME280;69636;52.372;13.610;2023-07-22T06:30:29;101052.03;;;15.15;87.12
80323;BME280;69636;52.372;13.610;2023-07-22T06:32:58;101054.72;;;15.15;86.96
80323;BME280;69636;52.372;13.610;2023-07-22T06:35:25;101056.06;;;15.11;86.93
80323;BME280;69636;52.372;13.610;2023-07-22T06:37:52;101054.91;;;15.36;85.39
80323;BME280;69636;52.372;13.610;2023-07-22T06:40:20;101052.84;;;15.46;84.39
80323;BME280;69636;52.372;13.610;2023-07-22T06:42:47;101056.31;;;15.55;83.63
80323;BME280;69636;52.372;13.610;2023-07-22T06:45:14;101055.97;;;15.81;83.89
80323;BME280;69636;52.372;13.610;2023-07-22T06:47:41;101054.63;;;16.00;81.76
80323;BME280;69636;52.372;13.610;2023-07-22T06:50:10;101054.16;;;15.96;81.88
80323;BME280;69636;52.372;13.610;2023-07-22T06:52:38;101056.31;;;16.15;80.79
80323;BME280;69636;52.372;13.610;2023-07-22T06:55:05;101055.47;;;16.15;79.89
80323;BME280;69636;52.372;13.610;2023-07-22T06:57:33;101060.56;;;16.10;80.55
80323;BME280;69636;52.372;13.610;2023-07-22T07:00:00;101059.44;;;16.04;81.12
80323;BME280;69636;52.372;13.610;2023-07-22T07:02:28;101066.78;;;16.25;80.34
80323;BME280;69636;52.372;13.610;2023-07-22T07:04:55;101066.94;;;16.23;78.26
80323;BME280;69636;52.372;13.610;2023-07-22T07:07:24;101067.16;;;16.37;78.05
80323;BME280;69636;52.372;13.610;2023-07-22T07:09:51;101073.53;;;16.36;78.50
80323;BME280;69636;52.372;13.610;2023-07-22T07:12:18;101064.94;;;16.25;76.31
80323;BME280;69636;52.372;13.610;2023-07-22T07:14:46;101078.25;;;16.34;74.79
80323;BME280;69636;52.372;13.610;2023-07-22T07:17:17;101068.38;;;16.49;73.67
80323;BME280;69636;52.372;13.610;2023-07-22T07:19:44;101081.47;;;16.44;74.66
80323;BME280;69636;52.372;13.610;2023-07-22T07:22:12;101071.44;;;16.60;73.40
80323;BME280;69636;52.372;13.610;2023-07-22T07:24:42;101067.91;;;16.60;72.92
80323;BME280;69636;52.372;13.610;2023-07-22T07:27:09;101075.28;;;16.43;74.49
80323;BME280;69636;52.372;13.610;2023-07-22T07:29:37;101067.72;;;16.47;74.14
80323;BME280;69636;52.372;13.610;2023-07-22T07:32:20;101071.44;;;16.75;73.47
80323;BME280;69636;52.372;13.610;2023-07-22T07:34:51;101073.66;;;16.86;72.06
80323;BME280;69636;52.372;13.610;2023-07-22T07:37:18;101075.75;;;16.91;72.56
80323;BME280;69636;52.372;13.610;2023-07-22T07:39:47;101076.22;;;17.09;72.38
80323;BME280;69636;52.372;13.610;2023-07-22T07:42:14;101075.06;;;17.33;70.00
80323;BME280;69636;52.372;13.610;2023-07-22T07:44:41;101086.19;;;17.15;69.77
80323;BME280;69636;52.372;13.610;2023-07-22T07:47:08;101086.81;;;17.17;68.42
80323;BME280;69636;52.372;13.610;2023-07-22T07:49:36;101094.03;;;17.17;68.88
80323;BME280;69636;52.372;13.610;2023-07-22T07:52:04;101095.66;;;16.96;67.18
80323;BME280;69636;52.372;13.610;2023-07-22T07:54:31;101092.50;;;17.08;69.77
80323;BME280;69636;52.372;13.610;2023-07-22T07:57:00;101101.34;;;17.23;68.48
80323;BME280;69636;52.372;13.610;2023-07-22T07:59:28;101095.25;;;17.50;66.68
80323;BME280;69636;52.372;13.610;2023-07-22T08:01:55;101092.66;;;17.57;68.00
80323;BME280;69636;52.372;13.610;2023-07-22T08:04:22;101098.19;;;17.34;67.98
80323;BME280;69636;52.372;13.610;2023-07-22T08:06:50;101097.16;;;17.35;65.96
80323;BME280;69636;52.372;13.610;2023-07-22T08:09:17;101095.06;;;17.52;65.44
80323;BME280;69636;52.372;13.610;2023-07-22T08:11:44;101099.97;;;17.48;65.85
80323;BME280;69636;52.372;13.610;2023-07-22T08:14:13;101103.22;;;17.44;64.99
80323;BME280;69636;52.372;13.610;2023-07-22T08:16:40;101104.13;;;17.51;63.86
80323;BME280;69636;52.372;13.610;2023-07-22T08:19:07;101100.22;;;17.32;64.08
80323;BME280;69636;52.372;13.610;2023-07-22T08:21:35;101093.97;;;17.46;65.20
80323;BME280;69636;52.372;13.610;2023-07-22T08:24:02;101099.50;;;17.59;62.58
80323;BME280;69636;52.372;13.610;2023-07-22T08:26:30;101107.66;;;17.87;63.04
80323;BME280;69636;52.372;13.610;2023-07-22T08:28:57;101107.91;;;17.92;63.21
80323;BME280;69636;52.372;13.610;2023-07-22T08:31:25;101108.13;;;17.97;64.83
80323;BME280;69636;52.372;13.610;2023-07-22T08:33:54;101109.56;;;18.43;63.27
80323;BME280;69636;52.372;13.610;2023-07-22T08:36:22;101108.06;;;18.12;61.25
80323;BME280;69636;52.372;13.610;2023-07-22T08:38:49;101107.06;;;17.71;62.48
80323;BME280;69636;52.372;13.610;2023-07-22T08:41:16;101118.81;;;17.70;61.73
80323;BME280;69636;52.372;13.610;2023-07-22T08:43:45;101119.22;;;17.88;61.78
80323;BME280;69636;52.372;13.610;2023-07-22T08:46:13;101127.75;;;17.91;62.38
80323;BME280;69636;52.372;13.610;2023-07-22T08:48:46;101117.94;;;17.84;61.86
80323;BME280;69636;52.372;13.610;2023-07-22T08:51:16;101118.41;;;17.87;60.95
80323;BME280;69636;52.372;13.610;2023-07-22T08:53:45;101122.88;;;17.80;60.92
80323;BME280;69636;52.372;13.610;2023-07-22T08:56:27;101125.34;;;17.82;62.21
80323;BME280;69636;52.372;13.610;2023-07-22T08:58:55;101132.13;;;17.99;62.68
80323;BME280;69636;52.372;13.610;2023-07-22T09:01:23;101132.44;;;18.11;60.89
80323;BME280;69636;52.372;13.610;2023-07-22T09:03:52;101119.19;;;18.30;59.90
80323;BME280;69636;52.372;13.610;2023-07-22T09:06:20;101127.50;;;18.36;59.48
80323;BME280;69636;52.372;13.610;2023-07-22T09:08:48;101132.63;;;18.30;59.87
80323;BME280;69636;52.372;13.610;2023-07-22T09:11:15;101131.72;;;18.45;59.61
80323;BME280;69636;52.372;13.610;2023-07-22T09:13:44;101135.59;;;19.05;57.14
80323;BME280;69636;52.372;13.610;2023-07-22T09:16:13;101134.91;;;19.30;56.44
80323;BME280;69636;52.372;13.610;2023-07-22T09:18:41;101133.03;;;19.31;57.56
80323;BME280;69636;52.372;13.610;2023-07-22T09:21:13;101137.69;;;19.50;57.67
80323;BME280;69636;52.372;13.610;2023-07-22T09:23:40;101136.75;;;19.91;56.12
80323;BME280;69636;52.372;13.610;2023-07-22T09:26:08;101130.59;;;20.50;54.28
80323;BME280;69636;52.372;13.610;2023-07-22T09:28:50;101127.94;;;21.08;52.07
80323;BME280;69636;52.372;13.610;2023-07-22T09:31:19;101127.84;;;21.41;50.64
80323;BME280;69636;52.372;13.610;2023-07-22T09:33:47;101124.19;;;21.60;50.20
80323;BME280;69636;52.372;13.610;2023-07-22T09:36:16;101128.53;;;21.99;48.14
80323;BME280;69636;52.372;13.610;2023-07-22T09:38:44;101134.00;;;21.03;49.35
80323;BME280;69636;52.372;13.610;2023-07-22T09:41:11;101137.81;;;20.29;51.23
80323;BME280;69636;52.372;13.610;2023-07-22T09:43:39;101139.00;;;19.81;53.32
80323;BME280;69636;52.372;13.610;2023-07-22T09:46:08;101133.00;;;19.18;54.60
80323;BME280;69636;52.372;13.610;2023-07-22T09:48:52;101139.34;;;18.69;55.88
80323;BME280;69636;52.372;13.610;2023-07-22T09:51:21;101132.63;;;18.86;55.30
80323;BME280;69636;52.372;13.610;2023-07-22T09:54:01;101130.50;;;19.23;55.42
80323;BME280;69636;52.372;13.610;2023-07-22T09:56:29;101129.03;;;19.61;54.76
80323;BME280;69636;52.372;13.610;2023-07-22T09:58:56;101138.88;;;19.41;53.88
80323;BME280;69636;52.372;13.610;2023-07-22T10:01:26;101134.25;;;19.83;52.34
80323;BME280;69636;52.372;13.610;2023-07-22T10:03:55;101135.50;;;19.74;52.99
80323;BME280;69636;52.372;13.610;2023-07-22T10:06:27;101141.75;;;20.33;51.13
80323;BME280;69636;52.372;13.610;2023-07-22T10:08:55;101135.94;;;20.63;50.58
80323;BME280;69636;52.372;13.610;2023-07-22T10:11:25;101140.94;;;20.26;50.94
80323;BME280;69636;52.372;13.610;2023-07-22T10:13:55;101138.63;;;20.10;51.37
80323;BME280;69636;52.372;13.610;2023-07-22T10:16:23;101145.72;;;20.38;50.79
80323;BME280;69636;52.372;13.610;2023-07-22T10:18:53;101130.59;;;20.50;50.70
80323;BME280;69636;52.372;13.610;2023-07-22T10:21:21;101131.38;;;20.70;49.27
80323;BME280;69636;52.372;13.610;2023-07-22T10:23:51;101139.25;;;20.32;51.62
80323;BME280;69636;52.372;13.610;2023-07-22T10:26:20;101137.97;;;20.94;50.50
80323;BME280;69636;52.372;13.610;2023-07-22T10:29:08;101126.91;;;21.91;48.23
80323;BME280;69636;52.372;13.610;2023-07-22T10:31:36;101132.66;;;21.32;49.03
80323;BME280;69636;52.372;13.610;2023-07-22T10:34:03;101136.16;;;21.39;47.77
80323;BME280;69636;52.372;13.610;2023-07-22T10:36:30;101136.81;;;20.44;48.91
80323;BME280;69636;52.372;13.610;2023-07-22T10:39:02;101138.00;;;19.95;50.45
80323;BME280;69636;52.372;13.610;2023-07-22T10:41:32;101138.84;;;21.39;48.78
80323;BME280;69636;52.372;13.610;2023-07-22T10:43:59;101142.78;;;22.38;46.93
80323;BME280;69636;52.372;13.610;2023-07-22T10:46:33;101128.31;;;22.93;44.70
80323;BME280;69636;52.372;13.610;2023-07-22T10:49:09;101141.22;;;21.98;44.60
80323;BME280;69636;52.372;13.610;2023-07-22T10:51:37;101129.59;;;21.91;45.17
80323;BME280;69636;52.372;13.610;2023-07-22T10:54:11;101128.34;;;21.62;46.50
80323;BME280;69636;52.372;13.610;2023-07-22T10:56:41;101132.91;;;21.24;47.03
80323;BME280;69636;52.372;13.610;2023-07-22T10:59:10;101125.34;;;20.75;48.74
80323;BME280;69636;52.372;13.610;2023-07-22T11:01:38;101132.66;;;20.48;49.03
80323;BME280;69636;52.372;13.610;2023-07-22T11:04:08;101136.34;;;20.53;48.83
80323;BME280;69636;52.372;13.610;2023-07-22T11:06:36;101141.13;;;20.71;47.86
80323;BME280;69636;52.372;13.610;2023-07-22T11:09:05;101136.19;;;22.09;45.28
80323;BME280;69636;52.372;13.610;2023-07-22T11:11:38;101134.81;;;23.11;42.72
80323;BME280;69636;52.372;13.610;2023-07-22T11:14:15;101131.84;;;22.32;45.19
80323;BME280;69636;52.372;13.610;2023-07-22T11:16:45;101120.75;;;22.09;45.87
80323;BME280;69636;52.372;13.610;2023-07-22T11:19:13;101128.44;;;21.49;45.86
80323;BME280;69636;52.372;13.610;2023-07-22T11:21:41;101120.84;;;22.03;44.92
80323;BME280;69636;52.372;13.610;2023-07-22T11:24:08;101128.56;;;22.67;43.05
80323;BME280;69636;52.372;13.610;2023-07-22T11:26:40;101131.84;;;22.32;43.56
80323;BME280;69636;52.372;13.610;2023-07-22T11:29:10;101121.25;;;22.49;42.88
80323;BME280;69636;52.372;13.610;2023-07-22T11:31:39;101114.94;;;22.98;42.72
80323;BME280;69636;52.372;13.610;2023-07-22T11:34:06;101111.47;;;23.10;40.54
80323;BME280;69636;52.372;13.610;2023-07-22T11:36:34;101115.28;;;23.39;40.74
80323;BME280;69636;52.372;13.610;2023-07-22T11:39:02;101121.38;;;23.34;40.58
80323;BME280;69636;52.372;13.610;2023-07-22T11:41:30;101121.69;;;24.27;40.82
80323;BME280;69636;52.372;13.610;2023-07-22T11:43:59;101110.84;;;23.26;39.96
80323;BME280;69636;52.372;13.610;2023-07-22T11:46:27;101118.34;;;22.01;43.11
80323;BME280;69636;52.372;13.610;2023-07-22T11:48:55;101109.34;;;22.57;42.69
80323;BME280;69636;52.372;13.610;2023-07-22T11:51:24;101107.97;;;22.66;42.79
80323;BME280;69636;52.372;13.610;2023-07-22T11:53:54;101110.22;;;22.69;41.91
80323;BME280;69636;52.372;13.610;2023-07-22T11:56:22;101108.84;;;23.51;40.06
80323;BME280;69636;52.372;13.610;2023-07-22T11:58:51;101102.09;;;23.60;39.73
80323;BME280;69636;52.372;13.610;2023-07-22T12:01:20;101105.72;;;23.36;39.13
80323;BME280;69636;52.372;13.610;2023-07-22T12:03:48;101102.06;;;22.94;40.50
80323;BME280;69636;52.372;13.610;2023-07-22T12:06:16;101090.28;;;23.66;39.16
80323;BME280;69636;52.372;13.610;2023-07-22T12:08:44;101094.41;;;24.22;37.81
80323;BME280;69636;52.372;13.610;2023-07-22T12:11:18;101086.28;;;24.57;38.92
80323;BME280;69636;52.372;13.610;2023-07-22T12:13:46;101101.25;;;24.83;36.50
80323;BME280;69636;52.372;13.610;2023-07-22T12:16:14;101092.28;;;23.59;38.66
80323;BME280;69636;52.372;13.610;2023-07-22T12:18:44;101095.34;;;23.33;39.54
80323;BME280;69636;52.372;13.610;2023-07-22T12:21:11;101093.06;;;22.82;40.81
80323;BME280;69636;52.372;13.610;2023-07-22T12:23:39;101099.16;;;22.52;41.18
80323;BME280;69636;52.372;13.610;2023-07-22T12:26:06;101080.00;;;22.72;40.64
80323;BME280;69636;52.372;13.610;2023-07-22T12:28:34;101080.78;;;22.97;40.37
80323;BME280;69636;52.372;13.610;2023-07-22T12:31:01;101092.00;;;22.83;40.94
80323;BME280;69636;52.372;13.610;2023-07-22T12:33:28;101082.56;;;22.49;40.25
80323;BME280;69636;52.372;13.610;2023-07-22T12:35:58;101074.59;;;23.27;38.76
80323;BME280;69636;52.372;13.610;2023-07-22T12:38:25;101082.41;;;22.62;39.85
80323;BME280;69636;52.372;13.610;2023-07-22T12:40:53;101081.75;;;21.98;40.90